Sugarloaf Key, Florida
Current Conditions -  °F | °C
As of 10:53 PM on Wednesday 22 Oct 2014 (Local Time) from KEYW Reporting Station
Moderate Rain Moderate Rain  
Wind Chill: 74°   Ceiling: 11000
Heat Index: 74°   Visibility: 9mi
Dew Point: 74°   Wind: 7mph
Humidity: 100%   Direction: 70°ENE
Pressure: 29.93"   Gusts: NA
Location:  24.6465°N, 81.5399°W
Report Text: KEYW 230253Z AUTO 07006KT 9SM RA OVC110 23/23 A2993 RMK AO2 RAB02 SLP135 P0003 60028 T02330233 55003
Loading
Personal Weather Stations






























Interactive Weather Map
Tropical Storm Tracking
New forecast layout! Learn more

10-Day Weather Forecast

Advertisements
Track Severe Weather on mobile